43.2°F
Current conditions from King Hill
Updated every 5 minutes
 
  Wednesday April 23, 2014

Station Historical Data
Daily Summary for July 3, 2012 Units:  Both    English   Metric
« Previous Day
Next Day »
Daily Weekly Monthly Yearly Custom
  High: Low: Average:
Temperature: 81.1 °F /  27.3 °C 53.0 °F /  11.7 °C 66.3 °F /  19.1 °C
Dew Point: 64.2 °F /  17.9 °C 51.6 °F /  10.9 °C 56.8 °F /  13.8 °C
Humidity: 96% 40% 75%
Wind Speed: 7.0mph /  11.3km/h - 2.4mph /  3.9km/h
Wind Gust: 12.0mph /  19.3km/h - -
Wind- - WSW
Pressure: 29.92 in /  1013.1 hPa 29.73 in /  1006.7 hPa -
Precipitation: 0.01 in /  0.3 mm    
Historical Graphs
 
 
Tabular Data for July 3, 2012
Time Temperature Dew Point Pressure Wind Wind Speed Wind Gust Humidity Daily Rainfall
00:04 56.4 °F /  13.6 °C 54.1 °F /  12.3 °C 29.87in /  1011.4hPa Calm     92% 0.00in /  0mm
00:09 56.1 °F /  13.4 °C 53.8 °F /  12.1 °C 29.87in /  1011.4hPa Calm     92% 0.00in /  0mm
00:14 56.1 °F /  13.4 °C 54.1 °F /  12.3 °C 29.87in /  1011.4hPa Calm     93% 0.00in /  0mm
00:19 56.1 °F /  13.4 °C 54.1 °F /  12.3 °C 29.87in /  1011.4hPa Calm     93% 0.00in /  0mm
00:29 56.0 °F /  13.3 °C 54.0 °F /  12.2 °C 29.86in /  1011.1hPa Calm     93% 0.00in /  0mm
00:34 55.9 °F /  13.3 °C 53.9 °F /  12.2 °C 29.86in /  1011.1hPa Calm     93% 0.00in /  0mm
00:39 55.6 °F /  13.1 °C 53.6 °F /  12 °C 29.86in /  1011.1hPa Calm     93% 0.00in /  0mm
00:44 55.4 °F /  13 °C 53.4 °F /  11.9 °C 29.86in /  1011.1hPa Calm     93% 0.00in /  0mm
00:49 55.3 °F /  12.9 °C 53.3 °F /  11.8 °C 29.86in /  1011.1hPa Calm     93% 0.00in /  0mm
00:54 55.3 °F /  12.9 °C 53.3 °F /  11.8 °C 29.86in /  1011.1hPa Calm     93% 0.00in /  0mm
00:59 55.2 °F /  12.9 °C 53.2 °F /  11.8 °C 29.86in /  1011.1hPa Calm     93% 0.00in /  0mm
01:04 55.2 °F /  12.9 °C 53.2 °F /  11.8 °C 29.86in /  1011.1hPa Calm     93% 0.00in /  0mm
01:09 55.1 °F /  12.8 °C 53.1 °F /  11.7 °C 29.86in /  1011.1hPa Calm     93% 0.00in /  0mm
01:14 54.9 °F /  12.7 °C 52.9 °F /  11.6 °C 29.86in /  1011.1hPa Calm     93% 0.00in /  0mm
01:19 54.8 °F /  12.7 °C 53.1 °F /  11.7 °C 29.86in /  1011.1hPa Calm     94% 0.00in /  0mm
01:24 54.7 °F /  12.6 °C 53.0 °F /  11.7 °C 29.86in /  1011.1hPa Calm     94% 0.00in /  0mm
01:29 54.7 °F /  12.6 °C 53.0 °F /  11.7 °C 29.86in /  1011.1hPa Calm     94% 0.00in /  0mm
01:34 54.8 °F /  12.7 °C 53.1 °F /  11.7 °C 29.86in /  1011.1hPa Calm     94% 0.00in /  0mm
01:39 54.7 °F /  12.6 °C 53.0 °F /  11.7 °C 29.86in /  1011.1hPa Calm     94% 0.00in /  0mm
01:44 54.5 °F /  12.5 °C 52.8 °F /  11.6 °C 29.86in /  1011.1hPa Calm     94% 0.00in /  0mm
01:49 54.5 °F /  12.5 °C 52.8 °F /  11.6 °C 29.86in /  1011.1hPa Calm     94% 0.00in /  0mm
01:54 54.5 °F /  12.5 °C 52.8 °F /  11.6 °C 29.86in /  1011.1hPa Calm     94% 0.00in /  0mm
01:59 54.5 °F /  12.5 °C 52.8 °F /  11.6 °C 29.86in /  1011.1hPa Calm     94% 0.00in /  0mm
02:04 54.6 °F /  12.6 °C 52.9 °F /  11.6 °C 29.86in /  1011.1hPa Calm     94% 0.00in /  0mm
02:09 54.6 °F /  12.6 °C 52.9 °F /  11.6 °C 29.86in /  1011.1hPa Calm     94% 0.00in /  0mm
02:14 54.8 °F /  12.7 °C 53.4 °F /  11.9 °C 29.86in /  1011.1hPa Calm     95% 0.00in /  0mm
02:19 54.9 °F /  12.7 °C 53.5 °F /  11.9 °C 29.86in /  1011.1hPa Calm     95% 0.00in /  0mm
02:24 54.9 °F /  12.7 °C 53.5 °F /  11.9 °C 29.86in /  1011.1hPa Calm     95% 0.00in /  0mm
02:29 54.9 °F /  12.7 °C 53.5 °F /  11.9 °C 29.86in /  1011.1hPa Calm     95% 0.00in /  0mm
02:34 54.8 °F /  12.7 °C 53.4 °F /  11.9 °C 29.86in /  1011.1hPa Calm     95% 0.00in /  0mm
02:39 54.7 °F /  12.6 °C 53.3 °F /  11.8 °C 29.86in /  1011.1hPa Calm     95% 0.00in /  0mm
02:44 54.6 °F /  12.6 °C 53.2 °F /  11.8 °C 29.86in /  1011.1hPa Calm     95% 0.00in /  0mm
02:49 54.6 °F /  12.6 °C 53.2 °F /  11.8 °C 29.85in /  1010.7hPa Calm     95% 0.00in /  0mm
02:54 54.7 °F /  12.6 °C 53.3 °F /  11.8 °C 29.86in /  1011.1hPa Calm     95% 0.00in /  0mm
02:59 54.7 °F /  12.6 °C 53.3 °F /  11.8 °C 29.86in /  1011.1hPa Calm     95% 0.00in /  0mm
03:04 54.7 °F /  12.6 °C 53.3 °F /  11.8 °C 29.86in /  1011.1hPa Calm     95% 0.00in /  0mm
03:09 54.5 °F /  12.5 °C 53.1 °F /  11.7 °C 29.85in /  1010.7hPa Calm     95% 0.00in /  0mm
03:14 54.7 °F /  12.6 °C 53.3 °F /  11.8 °C 29.85in /  1010.7hPa Calm     95% 0.00in /  0mm
03:19 54.7 °F /  12.6 °C 53.3 °F /  11.8 °C 29.85in /  1010.7hPa Calm     95% 0.00in /  0mm
03:29 54.7 °F /  12.6 °C 53.3 °F /  11.8 °C 29.86in /  1011.1hPa Calm     95% 0.00in /  0mm
03:34 54.7 °F /  12.6 °C 53.3 °F /  11.8 °C 29.85in /  1010.7hPa Calm     95% 0.00in /  0mm
03:39 54.6 °F /  12.6 °C 53.2 °F /  11.8 °C 29.85in /  1010.7hPa Calm     95% 0.00in /  0mm
03:44 54.5 °F /  12.5 °C 53.1 °F /  11.7 °C 29.85in /  1010.7hPa Calm     95% 0.00in /  0mm
03:49 54.3 °F /  12.4 °C 52.9 °F /  11.6 °C 29.85in /  1010.7hPa Calm     95% 0.00in /  0mm
03:54 54.1 °F /  12.3 °C 52.7 °F /  11.5 °C 29.85in /  1010.7hPa Calm     95% 0.00in /  0mm
03:59 54.2 °F /  12.3 °C 52.8 °F /  11.6 °C 29.85in /  1010.7hPa Calm     95% 0.00in /  0mm
04:04 54.0 °F /  12.2 °C 52.6 °F /  11.4 °C 29.85in /  1010.7hPa Calm     95% 0.00in /  0mm
04:09 53.7 °F /  12.1 °C 52.3 °F /  11.3 °C 29.85in /  1010.7hPa Calm     95% 0.00in /  0mm
04:14 53.5 °F /  11.9 °C 52.1 °F /  11.2 °C 29.86in /  1011.1hPa Calm     95% 0.00in /  0mm
04:19 53.4 °F /  11.9 °C 52.0 °F /  11.1 °C 29.86in /  1011.1hPa Calm     95% 0.00in /  0mm
04:24 53.3 °F /  11.8 °C 51.9 °F /  11.1 °C 29.86in /  1011.1hPa Calm     95% 0.00in /  0mm
04:29 53.4 °F /  11.9 °C 52.0 °F /  11.1 °C 29.86in /  1011.1hPa Calm     95% 0.00in /  0mm
04:34 53.3 °F /  11.8 °C 51.9 °F /  11.1 °C 29.86in /  1011.1hPa Calm     95% 0.00in /  0mm
04:39 53.1 °F /  11.7 °C 51.7 °F /  10.9 °C 29.87in /  1011.4hPa Calm     95% 0.00in /  0mm
04:44 53.2 °F /  11.8 °C 51.8 °F /  11 °C 29.86in /  1011.1hPa Calm     95% 0.00in /  0mm
04:49 53.2 °F /  11.8 °C 51.8 °F /  11 °C 29.86in /  1011.1hPa Calm     95% 0.00in /  0mm
04:54 53.1 °F /  11.7 °C 51.7 °F /  10.9 °C 29.87in /  1011.4hPa Calm     95% 0.00in /  0mm
04:59 53.0 °F /  11.7 °C 51.6 °F /  10.9 °C 29.87in /  1011.4hPa Calm     95% 0.00in /  0mm
05:04 53.0 °F /  11.7 °C 51.6 °F /  10.9 °C 29.87in /  1011.4hPa Calm     95% 0.00in /  0mm
05:09 53.2 °F /  11.8 °C 51.8 °F /  11 °C 29.87in /  1011.4hPa Calm     95% 0.00in /  0mm
05:14 53.8 °F /  12.1 °C 52.7 °F /  11.5 °C 29.87in /  1011.4hPa Calm     96% 0.00in /  0mm
05:19 54.6 °F /  12.6 °C 53.5 °F /  11.9 °C 29.87in /  1011.4hPa Calm   1.0mph /  1.6km/h 96% 0.00in /  0mm
05:24 55.1 °F /  12.8 °C 54.0 °F /  12.2 °C 29.88in /  1011.7hPa Calm   1.0mph /  1.6km/h 96% 0.00in /  0mm
05:29 55.2 °F /  12.9 °C 54.1 °F /  12.3 °C 29.88in /  1011.7hPa Calm     96% 0.00in /  0mm
05:34 55.0 °F /  12.8 °C 53.9 °F /  12.2 °C 29.87in /  1011.4hPa Calm     96% 0.00in /  0mm
05:39 55.2 °F /  12.9 °C 54.1 °F /  12.3 °C 29.88in /  1011.7hPa Calm     96% 0.00in /  0mm
05:44 55.3 °F /  12.9 °C 54.2 °F /  12.3 °C 29.88in /  1011.7hPa Calm     96% 0.00in /  0mm
05:49 55.3 °F /  12.9 °C 54.2 °F /  12.3 °C 29.88in /  1011.7hPa Calm     96% 0.00in /  0mm
05:54 55.5 °F /  13.1 °C 54.4 °F /  12.4 °C 29.88in /  1011.7hPa Calm     96% 0.00in /  0mm
05:59 55.7 °F /  13.2 °C 54.6 °F /  12.6 °C 29.87in /  1011.4hPa Calm     96% 0.00in /  0mm
06:04 55.5 °F /  13.1 °C 54.4 °F /  12.4 °C 29.87in /  1011.4hPa Calm     96% 0.00in /  0mm
06:09 55.5 °F /  13.1 °C 54.4 °F /  12.4 °C 29.87in /  1011.4hPa Calm     96% 0.00in /  0mm
06:14 55.3 °F /  12.9 °C 54.2 °F /  12.3 °C 29.87in /  1011.4hPa Calm     96% 0.01in /  0.3mm
06:19 55.1 °F /  12.8 °C 54.0 °F /  12.2 °C 29.87in /  1011.4hPa Calm     96% 0.01in /  0.3mm
06:24 55.1 °F /  12.8 °C 54.0 °F /  12.2 °C 29.87in /  1011.4hPa Calm     96% 0.01in /  0.3mm
06:29 55.0 °F /  12.8 °C 53.9 °F /  12.2 °C 29.86in /  1011.1hPa Calm     96% 0.01in /  0.3mm
06:34 55.1 °F /  12.8 °C 54.0 °F /  12.2 °C 29.86in /  1011.1hPa Calm     96% 0.01in /  0.3mm
06:39 55.6 °F /  13.1 °C 54.5 °F /  12.5 °C 29.86in /  1011.1hPa Calm   1.0mph /  1.6km/h 96% 0.01in /  0.3mm
06:44 56.2 °F /  13.4 °C 55.1 °F /  12.8 °C 29.87in /  1011.4hPa Calm   1.0mph /  1.6km/h 96% 0.01in /  0.3mm
06:49 56.4 °F /  13.6 °C 55.3 °F /  12.9 °C 29.87in /  1011.4hPa Calm   1.0mph /  1.6km/h 96% 0.01in /  0.3mm
06:54 56.6 °F /  13.7 °C 55.5 °F /  13.1 °C 29.88in /  1011.7hPa Calm     96% 0.01in /  0.3mm
06:59 57.0 °F /  13.9 °C 55.9 °F /  13.3 °C 29.89in /  1012.1hPa SW 1.0mph /  1.6km/h 4.0mph /  6.4km/h 96% 0.01in /  0.3mm
07:04 57.5 °F /  14.2 °C 56.4 °F /  13.6 °C 29.89in /  1012.1hPa Calm   4.0mph /  6.4km/h 96% 0.01in /  0.3mm
07:09 57.7 °F /  14.3 °C 56.6 °F /  13.7 °C 29.89in /  1012.1hPa Calm   3.0mph /  4.8km/h 96% 0.01in /  0.3mm
07:14 58.1 °F /  14.5 °C 57.0 °F /  13.9 °C 29.90in /  1012.4hPa Calm   1.0mph /  1.6km/h 96% 0.01in /  0.3mm
07:19 58.5 °F /  14.7 °C 57.4 °F /  14.1 °C 29.90in /  1012.4hPa Calm   3.0mph /  4.8km/h 96% 0.01in /  0.3mm
07:24 58.9 °F /  14.9 °C 57.8 °F /  14.3 °C 29.90in /  1012.4hPa Calm   3.0mph /  4.8km/h 96% 0.01in /  0.3mm
07:29 59.0 °F /  15 °C 57.9 °F /  14.4 °C 29.90in /  1012.4hPa Calm   1.0mph /  1.6km/h 96% 0.01in /  0.3mm
07:34 59.0 °F /  15 °C 57.9 °F /  14.4 °C 29.91in /  1012.8hPa Calm   2.0mph /  3.2km/h 96% 0.01in /  0.3mm
07:39 59.0 °F /  15 °C 57.9 °F /  14.4 °C 29.91in /  1012.8hPa Calm   2.0mph /  3.2km/h 96% 0.01in /  0.3mm
07:44 59.4 °F /  15.2 °C 58.3 °F /  14.6 °C 29.91in /  1012.8hPa Calm   2.0mph /  3.2km/h 96% 0.01in /  0.3mm
07:49 59.1 °F /  15.1 °C 58.0 °F /  14.4 °C 29.91in /  1012.8hPa Calm   2.0mph /  3.2km/h 96% 0.01in /  0.3mm
07:59 59.8 °F /  15.4 °C 58.7 °F /  14.8 °C 29.92in /  1013.1hPa Calm   2.0mph /  3.2km/h 96% 0.01in /  0.3mm
08:04 60.3 °F /  15.7 °C 59.2 °F /  15.1 °C 29.91in /  1012.8hPa Calm   2.0mph /  3.2km/h 96% 0.01in /  0.3mm
08:09 61.2 °F /  16.2 °C 60.1 °F /  15.6 °C 29.92in /  1013.1hPa Calm   2.0mph /  3.2km/h 96% 0.01in /  0.3mm
08:14 61.3 °F /  16.3 °C 59.9 °F /  15.5 °C 29.91in /  1012.8hPa Calm   1.0mph /  1.6km/h 95% 0.01in /  0.3mm
08:19 62.0 °F /  16.7 °C 60.3 °F /  15.7 °C 29.91in /  1012.8hPa Calm   1.0mph /  1.6km/h 94% 0.01in /  0.3mm
08:24 63.1 °F /  17.3 °C 61.0 °F /  16.1 °C 29.91in /  1012.8hPa Calm     93% 0.01in /  0.3mm
08:29 63.3 °F /  17.4 °C 59.7 °F /  15.4 °C 29.91in /  1012.8hPa Calm     88% 0.01in /  0.3mm
08:34 64.1 °F /  17.8 °C 60.2 °F /  15.7 °C 29.91in /  1012.8hPa Calm     87% 0.01in /  0.3mm
08:39 65.3 °F /  18.5 °C 60.7 °F /  15.9 °C 29.91in /  1012.8hPa Calm     85% 0.01in /  0.3mm
08:44 66.2 °F /  19 °C 60.2 °F /  15.7 °C 29.91in /  1012.8hPa Calm     81% 0.01in /  0.3mm
08:49 66.6 °F /  19.2 °C 59.9 °F /  15.5 °C 29.91in /  1012.8hPa Calm     79% 0.01in /  0.3mm
08:54 67.4 °F /  19.7 °C 59.9 °F /  15.5 °C 29.92in /  1013.1hPa Calm     77% 0.01in /  0.3mm
08:59 68.3 °F /  20.2 °C 61.2 °F /  16.2 °C 29.91in /  1012.8hPa Calm   1.0mph /  1.6km/h 78% 0.01in /  0.3mm
09:04 69.1 °F /  20.6 °C 61.6 °F /  16.4 °C 29.91in /  1012.8hPa Calm   1.0mph /  1.6km/h 77% 0.01in /  0.3mm
09:09 69.7 °F /  20.9 °C 61.1 °F /  16.2 °C 29.91in /  1012.8hPa Calm     74% 0.01in /  0.3mm
09:19 71.0 °F /  21.7 °C 60.7 °F /  15.9 °C 29.90in /  1012.4hPa Calm   1.0mph /  1.6km/h 70% 0.01in /  0.3mm
09:24 71.4 °F /  21.9 °C 60.7 °F /  15.9 °C 29.90in /  1012.4hPa Calm     69% 0.01in /  0.3mm
09:34 71.1 °F /  21.7 °C 59.6 °F /  15.3 °C 29.90in /  1012.4hPa Calm   1.0mph /  1.6km/h 67% 0.01in /  0.3mm
09:39 71.2 °F /  21.8 °C 60.5 °F /  15.8 °C 29.90in /  1012.4hPa Calm   1.0mph /  1.6km/h 69% 0.01in /  0.3mm
09:44 71.9 °F /  22.2 °C 61.2 °F /  16.2 °C 29.90in /  1012.4hPa Calm   1.0mph /  1.6km/h 69% 0.01in /  0.3mm
09:49 72.5 °F /  22.5 °C 59.6 °F /  15.3 °C 29.89in /  1012.1hPa Calm     64% 0.01in /  0.3mm
09:59 73.4 °F /  23 °C 60.9 °F /  16.1 °C 29.89in /  1012.1hPa Calm   1.0mph /  1.6km/h 65% 0.01in /  0.3mm
10:09 72.6 °F /  22.6 °C 57.5 °F /  14.2 °C 29.90in /  1012.4hPa WNW 2.0mph /  3.2km/h 5.0mph /  8km/h 59% 0.01in /  0.3mm
10:14 72.1 °F /  22.3 °C 57.0 °F /  13.9 °C 29.90in /  1012.4hPa Calm   7.0mph /  11.3km/h 59% 0.01in /  0.3mm
10:19 72.0 °F /  22.2 °C 59.2 °F /  15.1 °C 29.90in /  1012.4hPa West 1.0mph /  1.6km/h 7.0mph /  11.3km/h 64% 0.01in /  0.3mm
10:24 72.3 °F /  22.4 °C 58.6 °F /  14.8 °C 29.90in /  1012.4hPa Calm   7.0mph /  11.3km/h 62% 0.01in /  0.3mm
10:34 72.4 °F /  22.4 °C 58.2 °F /  14.6 °C 29.89in /  1012.1hPa Calm   6.0mph /  9.7km/h 61% 0.01in /  0.3mm
10:39 72.6 °F /  22.6 °C 58.9 °F /  14.9 °C 29.89in /  1012.1hPa WNW 3.0mph /  4.8km/h 8.0mph /  12.9km/h 62% 0.01in /  0.3mm
10:44 72.9 °F /  22.7 °C 57.3 °F /  14.1 °C 29.89in /  1012.1hPa Calm   8.0mph /  12.9km/h 58% 0.01in /  0.3mm
10:49 72.7 °F /  22.6 °C 58.0 °F /  14.4 °C 29.89in /  1012.1hPa NW 1.0mph /  1.6km/h 9.0mph /  14.5km/h 60% 0.01in /  0.3mm
10:54 72.8 °F /  22.7 °C 57.2 °F /  14 °C 29.89in /  1012.1hPa NW 3.0mph /  4.8km/h 9.0mph /  14.5km/h 58% 0.01in /  0.3mm
10:59 73.1 °F /  22.8 °C 58.4 °F /  14.7 °C 29.89in /  1012.1hPa Calm   7.0mph /  11.3km/h 60% 0.01in /  0.3mm
11:04 73.6 °F /  23.1 °C 58.9 °F /  14.9 °C 29.89in /  1012.1hPa NE 1.0mph /  1.6km/h 6.0mph /  9.7km/h 60% 0.01in /  0.3mm
11:09 74.6 °F /  23.7 °C 59.3 °F /  15.2 °C 29.89in /  1012.1hPa Calm   6.0mph /  9.7km/h 59% 0.01in /  0.3mm
11:14 75.2 °F /  24 °C 59.4 °F /  15.2 °C 29.88in /  1011.7hPa WNW 1.0mph /  1.6km/h 6.0mph /  9.7km/h 58% 0.01in /  0.3mm
11:19 74.8 °F /  23.8 °C 58.6 °F /  14.8 °C 29.88in /  1011.7hPa WNW 2.0mph /  3.2km/h 6.0mph /  9.7km/h 57% 0.01in /  0.3mm
11:29 75.6 °F /  24.2 °C 57.3 °F /  14.1 °C 29.89in /  1012.1hPa Calm   5.0mph /  8km/h 53% 0.01in /  0.3mm
11:34 75.9 °F /  24.4 °C 58.6 °F /  14.8 °C 29.88in /  1011.7hPa NE 1.0mph /  1.6km/h 5.0mph /  8km/h 55% 0.01in /  0.3mm
11:39 76.0 °F /  24.4 °C 59.2 °F /  15.1 °C 29.89in /  1012.1hPa WNW 1.0mph /  1.6km/h 5.0mph /  8km/h 56% 0.01in /  0.3mm
11:44 76.6 °F /  24.8 °C 60.7 °F /  15.9 °C 29.88in /  1011.7hPa Calm   5.0mph /  8km/h 58% 0.01in /  0.3mm
11:54 76.6 °F /  24.8 °C 59.8 °F /  15.4 °C 29.88in /  1011.7hPa NW 3.0mph /  4.8km/h 6.0mph /  9.7km/h 56% 0.01in /  0.3mm
11:59 76.7 °F /  24.8 °C 59.3 °F /  15.2 °C 29.88in /  1011.7hPa Calm   6.0mph /  9.7km/h 55% 0.01in /  0.3mm
12:04 77.3 °F /  25.2 °C 58.3 °F /  14.6 °C 29.88in /  1011.7hPa NW 1.0mph /  1.6km/h 5.0mph /  8km/h 52% 0.01in /  0.3mm
12:09 77.0 °F /  25 °C 57.0 °F /  13.9 °C 29.88in /  1011.7hPa WNW 4.0mph /  6.4km/h 12.0mph /  19.3km/h 50% 0.01in /  0.3mm
12:14 76.4 °F /  24.7 °C 57.5 °F /  14.2 °C 29.88in /  1011.7hPa NW 5.0mph /  8km/h 12.0mph /  19.3km/h 52% 0.01in /  0.3mm
12:19 76.2 °F /  24.6 °C 56.8 °F /  13.8 °C 29.88in /  1011.7hPa WNW 2.0mph /  3.2km/h 9.0mph /  14.5km/h 51% 0.01in /  0.3mm
12:24 76.0 °F /  24.4 °C 55.5 °F /  13.1 °C 29.88in /  1011.7hPa WNW 3.0mph /  4.8km/h 12.0mph /  19.3km/h 49% 0.01in /  0.3mm
12:29 75.7 °F /  24.3 °C 52.9 °F /  11.6 °C 29.88in /  1011.7hPa NW 7.0mph /  11.3km/h 12.0mph /  19.3km/h 45% 0.01in /  0.3mm
12:34 75.5 °F /  24.2 °C 57.2 °F /  14 °C 29.88in /  1011.7hPa NW 5.0mph /  8km/h 12.0mph /  19.3km/h 53% 0.01in /  0.3mm
12:39 75.7 °F /  24.3 °C 55.8 °F /  13.2 °C 29.88in /  1011.7hPa NW 2.0mph /  3.2km/h 11.0mph /  17.7km/h 50% 0.01in /  0.3mm
12:44 76.0 °F /  24.4 °C 55.5 °F /  13.1 °C 29.88in /  1011.7hPa WNW 5.0mph /  8km/h 10.0mph /  16.1km/h 49% 0.01in /  0.3mm
12:49 76.2 °F /  24.6 °C 54.5 °F /  12.5 °C 29.88in /  1011.7hPa NW 4.0mph /  6.4km/h 10.0mph /  16.1km/h 47% 0.01in /  0.3mm
12:54 76.5 °F /  24.7 °C 57.1 °F /  13.9 °C 29.88in /  1011.7hPa NW 3.0mph /  4.8km/h 8.0mph /  12.9km/h 51% 0.01in /  0.3mm
12:59 76.8 °F /  24.9 °C 55.7 °F /  13.2 °C 29.88in /  1011.7hPa NW 5.0mph /  8km/h 9.0mph /  14.5km/h 48% 0.01in /  0.3mm
13:04 76.8 °F /  24.9 °C 56.8 °F /  13.8 °C 29.88in /  1011.7hPa Calm   9.0mph /  14.5km/h 50% 0.01in /  0.3mm
13:09 77.0 °F /  25 °C 59.6 °F /  15.3 °C 29.87in /  1011.4hPa WNW 1.0mph /  1.6km/h 8.0mph /  12.9km/h 55% 0.01in /  0.3mm
13:14 77.5 °F /  25.3 °C 57.4 °F /  14.1 °C 29.88in /  1011.7hPa WNW 2.0mph /  3.2km/h 8.0mph /  12.9km/h 50% 0.01in /  0.3mm
13:19 77.9 °F /  25.5 °C 54.9 °F /  12.7 °C 29.87in /  1011.4hPa NW 2.0mph /  3.2km/h 8.0mph /  12.9km/h 45% 0.01in /  0.3mm
13:24 77.8 °F /  25.4 °C 55.4 °F /  13 °C 29.87in /  1011.4hPa NW 2.0mph /  3.2km/h 6.0mph /  9.7km/h 46% 0.01in /  0.3mm
13:29 77.8 °F /  25.4 °C 56.0 °F /  13.3 °C 29.87in /  1011.4hPa NW 2.0mph /  3.2km/h 9.0mph /  14.5km/h 47% 0.01in /  0.3mm
13:34 78.0 °F /  25.6 °C 57.3 °F /  14.1 °C 29.87in /  1011.4hPa NW 2.0mph /  3.2km/h 9.0mph /  14.5km/h 49% 0.01in /  0.3mm
13:39 78.0 °F /  25.6 °C 57.3 °F /  14.1 °C 29.87in /  1011.4hPa WNW 4.0mph /  6.4km/h 6.0mph /  9.7km/h 49% 0.01in /  0.3mm
13:44 78.2 °F /  25.7 °C 58.1 °F /  14.5 °C 29.86in /  1011.1hPa WNW 1.0mph /  1.6km/h 7.0mph /  11.3km/h 50% 0.01in /  0.3mm
13:49 78.4 °F /  25.8 °C 57.1 °F /  13.9 °C 29.86in /  1011.1hPa West 3.0mph /  4.8km/h 7.0mph /  11.3km/h 48% 0.01in /  0.3mm
13:54 78.5 °F /  25.8 °C 57.2 °F /  14 °C 29.87in /  1011.4hPa West 3.0mph /  4.8km/h 5.0mph /  8km/h 48% 0.01in /  0.3mm
13:59 78.7 °F /  25.9 °C 58.0 °F /  14.4 °C 29.86in /  1011.1hPa WNW 1.0mph /  1.6km/h 6.0mph /  9.7km/h 49% 0.01in /  0.3mm
14:04 79.4 °F /  26.3 °C 56.2 °F /  13.4 °C 29.86in /  1011.1hPa NW 1.0mph /  1.6km/h 6.0mph /  9.7km/h 45% 0.01in /  0.3mm
14:09 79.6 °F /  26.4 °C 61.0 °F /  16.1 °C 29.86in /  1011.1hPa Calm   2.0mph /  3.2km/h 53% 0.01in /  0.3mm
14:14 79.9 °F /  26.6 °C 57.3 °F /  14.1 °C 29.86in /  1011.1hPa NNW 2.0mph /  3.2km/h 6.0mph /  9.7km/h 46% 0.01in /  0.3mm
14:19 79.9 °F /  26.6 °C 57.9 °F /  14.4 °C 29.86in /  1011.1hPa NW 2.0mph /  3.2km/h 6.0mph /  9.7km/h 47% 0.01in /  0.3mm
14:24 79.7 °F /  26.5 °C 57.1 °F /  13.9 °C 29.86in /  1011.1hPa Calm   5.0mph /  8km/h 46% 0.01in /  0.3mm
14:29 79.9 °F /  26.6 °C 56.7 °F /  13.7 °C 29.86in /  1011.1hPa NW 3.0mph /  4.8km/h 5.0mph /  8km/h 45% 0.01in /  0.3mm
14:34 79.4 °F /  26.3 °C 57.4 °F /  14.1 °C 29.86in /  1011.1hPa WNW 4.0mph /  6.4km/h 8.0mph /  12.9km/h 47% 0.01in /  0.3mm
14:39 79.2 °F /  26.2 °C 62.2 °F /  16.8 °C 29.86in /  1011.1hPa NW 1.0mph /  1.6km/h 8.0mph /  12.9km/h 56% 0.01in /  0.3mm
14:44 79.7 °F /  26.5 °C 60.0 °F /  15.6 °C 29.85in /  1010.7hPa Calm   7.0mph /  11.3km/h 51% 0.01in /  0.3mm
14:49 80.2 °F /  26.8 °C 58.8 °F /  14.9 °C 29.85in /  1010.7hPa Calm   4.0mph /  6.4km/h 48% 0.01in /  0.3mm
14:54 80.1 °F /  26.7 °C 57.5 °F /  14.2 °C 29.85in /  1010.7hPa NW 6.0mph /  9.7km/h 10.0mph /  16.1km/h 46% 0.01in /  0.3mm
14:59 79.3 °F /  26.3 °C 56.1 °F /  13.4 °C 29.85in /  1010.7hPa NNW 2.0mph /  3.2km/h 10.0mph /  16.1km/h 45% 0.01in /  0.3mm
15:04 79.3 °F /  26.3 °C 55.5 °F /  13.1 °C 29.85in /  1010.7hPa Calm   6.0mph /  9.7km/h 44% 0.01in /  0.3mm
15:09 79.7 °F /  26.5 °C 58.9 °F /  14.9 °C 29.84in /  1010.4hPa Calm   3.0mph /  4.8km/h 49% 0.01in /  0.3mm
15:14 80.2 °F /  26.8 °C 55.1 °F /  12.8 °C 29.84in /  1010.4hPa NE 2.0mph /  3.2km/h 8.0mph /  12.9km/h 42% 0.01in /  0.3mm
15:19 80.7 °F /  27.1 °C 60.4 °F /  15.8 °C 29.85in /  1010.7hPa NW 1.0mph /  1.6km/h 8.0mph /  12.9km/h 50% 0.01in /  0.3mm
15:24 81.1 °F /  27.3 °C 57.2 °F /  14 °C 29.84in /  1010.4hPa NE 1.0mph /  1.6km/h 3.0mph /  4.8km/h 44% 0.01in /  0.3mm
15:29 81.1 °F /  27.3 °C 57.8 °F /  14.3 °C 29.84in /  1010.4hPa NE 1.0mph /  1.6km/h 5.0mph /  8km/h 45% 0.01in /  0.3mm
15:34 80.6 °F /  27 °C 54.1 °F /  12.3 °C 29.84in /  1010.4hPa NNE 1.0mph /  1.6km/h 7.0mph /  11.3km/h 40% 0.01in /  0.3mm
15:39 80.6 °F /  27 °C 56.1 °F /  13.4 °C 29.83in /  1010hPa Calm   7.0mph /  11.3km/h 43% 0.01in /  0.3mm
15:44 80.5 °F /  26.9 °C 57.2 °F /  14 °C 29.83in /  1010hPa Calm   5.0mph /  8km/h 45% 0.01in /  0.3mm
15:49 80.3 °F /  26.8 °C 57.1 °F /  13.9 °C 29.83in /  1010hPa ENE 3.0mph /  4.8km/h 8.0mph /  12.9km/h 45% 0.01in /  0.3mm
15:54 80.3 °F /  26.8 °C 55.8 °F /  13.2 °C 29.82in /  1009.7hPa North 1.0mph /  1.6km/h 8.0mph /  12.9km/h 43% 0.01in /  0.3mm
15:59 80.2 °F /  26.8 °C 55.7 °F /  13.2 °C 29.83in /  1010hPa NNE 2.0mph /  3.2km/h 8.0mph /  12.9km/h 43% 0.01in /  0.3mm
16:04 80.5 °F /  26.9 °C 57.2 °F /  14 °C 29.83in /  1010hPa ENE 1.0mph /  1.6km/h 8.0mph /  12.9km/h 45% 0.01in /  0.3mm
16:09 80.5 °F /  26.9 °C 55.3 °F /  12.9 °C 29.83in /  1010hPa ENE 2.0mph /  3.2km/h 6.0mph /  9.7km/h 42% 0.01in /  0.3mm
16:14 80.0 °F /  26.7 °C 55.5 °F /  13.1 °C 29.82in /  1009.7hPa NNE 2.0mph /  3.2km/h 6.0mph /  9.7km/h 43% 0.01in /  0.3mm
16:19 79.6 °F /  26.4 °C 56.4 °F /  13.6 °C 29.82in /  1009.7hPa Calm   5.0mph /  8km/h 45% 0.01in /  0.3mm
16:24 79.6 °F /  26.4 °C 54.5 °F /  12.5 °C 29.82in /  1009.7hPa Calm   3.0mph /  4.8km/h 42% 0.01in /  0.3mm
16:29 79.7 °F /  26.5 °C 58.3 °F /  14.6 °C 29.82in /  1009.7hPa Calm   3.0mph /  4.8km/h 48% 0.01in /  0.3mm
16:34 79.8 °F /  26.6 °C 57.2 °F /  14 °C 29.82in /  1009.7hPa Calm   3.0mph /  4.8km/h 46% 0.01in /  0.3mm
16:39 80.0 °F /  26.7 °C 56.8 °F /  13.8 °C 29.82in /  1009.7hPa Calm   4.0mph /  6.4km/h 45% 0.01in /  0.3mm
16:44 80.1 °F /  26.7 °C 56.3 °F /  13.5 °C 29.82in /  1009.7hPa Calm   4.0mph /  6.4km/h 44% 0.01in /  0.3mm
16:49 80.0 °F /  26.7 °C 56.2 °F /  13.4 °C 29.82in /  1009.7hPa Calm   4.0mph /  6.4km/h 44% 0.01in /  0.3mm
16:54 79.6 °F /  26.4 °C 57.6 °F /  14.2 °C 29.82in /  1009.7hPa Calm   1.0mph /  1.6km/h 47% 0.01in /  0.3mm
16:59 79.2 °F /  26.2 °C 56.7 °F /  13.7 °C 29.81in /  1009.4hPa Calm     46% 0.01in /  0.3mm
17:04 79.0 °F /  26.1 °C 58.8 °F /  14.9 °C 29.81in /  1009.4hPa Calm     50% 0.01in /  0.3mm
17:09 78.9 °F /  26.1 °C 63.9 °F /  17.7 °C 29.81in /  1009.4hPa Calm     60% 0.01in /  0.3mm
17:14 78.7 °F /  25.9 °C 62.7 °F /  17.1 °C 29.81in /  1009.4hPa Calm     58% 0.01in /  0.3mm
17:19 77.9 °F /  25.5 °C 62.4 °F /  16.9 °C 29.81in /  1009.4hPa Calm     59% 0.01in /  0.3mm
17:24 77.3 °F /  25.2 °C 63.7 °F /  17.6 °C 29.81in /  1009.4hPa Calm     63% 0.01in /  0.3mm
17:29 76.8 °F /  24.9 °C 64.2 °F /  17.9 °C 29.81in /  1009.4hPa Calm     65% 0.01in /  0.3mm
17:34 76.3 °F /  24.6 °C 63.2 °F /  17.3 °C 29.80in /  1009hPa Calm     64% 0.01in /  0.3mm
17:39 76.0 °F /  24.4 °C 62.5 °F /  16.9 °C 29.80in /  1009hPa Calm     63% 0.01in /  0.3mm
17:44 75.9 °F /  24.4 °C 64.2 °F /  17.9 °C 29.80in /  1009hPa Calm     67% 0.01in /  0.3mm
17:49 75.6 °F /  24.2 °C 63.9 °F /  17.7 °C 29.80in /  1009hPa Calm     67% 0.01in /  0.3mm
17:54 75.2 °F /  24 °C 63.9 °F /  17.7 °C 29.80in /  1009hPa Calm     68% 0.01in /  0.3mm
17:59 74.8 °F /  23.8 °C 64.0 °F /  17.8 °C 29.80in /  1009hPa Calm     69% 0.01in /  0.3mm
18:04 74.5 °F /  23.6 °C 63.7 °F /  17.6 °C 29.80in /  1009hPa Calm     69% 0.01in /  0.3mm
18:09 74.4 °F /  23.6 °C 63.2 °F /  17.3 °C 29.80in /  1009hPa Calm     68% 0.01in /  0.3mm
18:14 74.4 °F /  23.6 °C 64.0 °F /  17.8 °C 29.80in /  1009hPa Calm     70% 0.01in /  0.3mm
18:19 74.5 °F /  23.6 °C 62.0 °F /  16.7 °C 29.79in /  1008.7hPa Calm     65% 0.01in /  0.3mm
18:24 74.9 °F /  23.8 °C 60.1 °F /  15.6 °C 29.79in /  1008.7hPa Calm     60% 0.01in /  0.3mm
18:29 75.8 °F /  24.3 °C 61.4 °F /  16.3 °C 29.79in /  1008.7hPa Calm     61% 0.01in /  0.3mm
18:34 76.6 °F /  24.8 °C 60.7 °F /  15.9 °C 29.79in /  1008.7hPa Calm     58% 0.01in /  0.3mm
18:39 76.8 °F /  24.9 °C 59.9 °F /  15.5 °C 29.79in /  1008.7hPa Calm     56% 0.01in /  0.3mm
18:44 76.4 °F /  24.7 °C 62.9 °F /  17.2 °C 29.79in /  1008.7hPa Calm     63% 0.01in /  0.3mm
18:49 75.4 °F /  24.1 °C 63.3 °F /  17.4 °C 29.79in /  1008.7hPa Calm     66% 0.01in /  0.3mm
18:54 74.3 °F /  23.5 °C 62.2 °F /  16.8 °C 29.79in /  1008.7hPa Calm     66% 0.01in /  0.3mm
18:59 73.3 °F /  22.9 °C 61.7 °F /  16.5 °C 29.78in /  1008.4hPa Calm     67% 0.01in /  0.3mm
19:04 72.6 °F /  22.6 °C 62.7 °F /  17.1 °C 29.78in /  1008.4hPa Calm     71% 0.01in /  0.3mm
19:09 72.3 °F /  22.4 °C 62.8 °F /  17.1 °C 29.78in /  1008.4hPa Calm     72% 0.01in /  0.3mm
19:14 72.0 °F /  22.2 °C 62.1 °F /  16.7 °C 29.78in /  1008.4hPa Calm     71% 0.01in /  0.3mm
19:19 71.7 °F /  22.1 °C 60.6 °F /  15.9 °C 29.78in /  1008.4hPa Calm   2.0mph /  3.2km/h 68% 0.01in /  0.3mm
19:24 71.3 °F /  21.8 °C 61.0 °F /  16.1 °C 29.78in /  1008.4hPa Calm   2.0mph /  3.2km/h 70% 0.01in /  0.3mm
19:29 71.1 °F /  21.7 °C 60.8 °F /  16 °C 29.78in /  1008.4hPa Calm     70% 0.01in /  0.3mm
19:34 70.6 °F /  21.4 °C 60.4 °F /  15.8 °C 29.78in /  1008.4hPa Calm     70% 0.01in /  0.3mm
19:39 70.2 °F /  21.2 °C 60.4 °F /  15.8 °C 29.78in /  1008.4hPa Calm     71% 0.01in /  0.3mm
19:44 69.6 °F /  20.9 °C 59.4 °F /  15.2 °C 29.78in /  1008.4hPa Calm     70% 0.01in /  0.3mm
19:49 68.8 °F /  20.4 °C 59.0 °F /  15 °C 29.77in /  1008hPa Calm     71% 0.01in /  0.3mm
19:54 68.1 °F /  20.1 °C 59.1 °F /  15.1 °C 29.77in /  1008hPa Calm     73% 0.01in /  0.3mm
19:59 67.6 °F /  19.8 °C 59.0 °F /  15 °C 29.77in /  1008hPa Calm     74% 0.01in /  0.3mm
20:04 67.0 °F /  19.4 °C 58.4 °F /  14.7 °C 29.77in /  1008hPa Calm     74% 0.01in /  0.3mm
20:09 66.6 °F /  19.2 °C 58.1 °F /  14.5 °C 29.77in /  1008hPa Calm     74% 0.01in /  0.3mm
20:14 66.1 °F /  18.9 °C 58.0 °F /  14.4 °C 29.77in /  1008hPa Calm     75% 0.01in /  0.3mm
20:19 65.7 °F /  18.7 °C 57.9 °F /  14.4 °C 29.77in /  1008hPa Calm     76% 0.01in /  0.3mm
20:24 65.3 °F /  18.5 °C 57.5 °F /  14.2 °C 29.77in /  1008hPa Calm     76% 0.01in /  0.3mm
20:29 64.8 °F /  18.2 °C 57.1 °F /  13.9 °C 29.77in /  1008hPa Calm     76% 0.01in /  0.3mm
20:34 64.4 °F /  18 °C 57.0 °F /  13.9 °C 29.77in /  1008hPa Calm     77% 0.01in /  0.3mm
20:39 64.0 °F /  17.8 °C 56.7 °F /  13.7 °C 29.77in /  1008hPa Calm     77% 0.01in /  0.3mm
20:44 63.6 °F /  17.6 °C 56.3 °F /  13.5 °C 29.77in /  1008hPa Calm     77% 0.01in /  0.3mm
20:49 63.2 °F /  17.3 °C 56.2 °F /  13.4 °C 29.77in /  1008hPa Calm     78% 0.01in /  0.3mm
20:54 62.8 °F /  17.1 °C 55.8 °F /  13.2 °C 29.77in /  1008hPa Calm     78% 0.01in /  0.3mm
20:59 62.4 °F /  16.9 °C 55.5 °F /  13.1 °C 29.77in /  1008hPa Calm     78% 0.01in /  0.3mm
21:04 62.0 °F /  16.7 °C 55.4 °F /  13 °C 29.77in /  1008hPa Calm     79% 0.01in /  0.3mm
21:09 61.7 °F /  16.5 °C 55.1 °F /  12.8 °C 29.77in /  1008hPa Calm     79% 0.01in /  0.3mm
21:14 61.5 °F /  16.4 °C 54.9 °F /  12.7 °C 29.77in /  1008hPa Calm     79% 0.01in /  0.3mm
21:19 61.4 °F /  16.3 °C 55.2 °F /  12.9 °C 29.77in /  1008hPa Calm     80% 0.01in /  0.3mm
21:24 61.2 °F /  16.2 °C 55.0 °F /  12.8 °C 29.77in /  1008hPa Calm     80% 0.01in /  0.3mm
21:29 61.2 °F /  16.2 °C 55.0 °F /  12.8 °C 29.77in /  1008hPa Calm     80% 0.01in /  0.3mm
21:34 61.1 °F /  16.2 °C 54.9 °F /  12.7 °C 29.77in /  1008hPa Calm     80% 0.01in /  0.3mm
21:39 61.1 °F /  16.2 °C 54.9 °F /  12.7 °C 29.77in /  1008hPa Calm     80% 0.01in /  0.3mm
21:44 61.1 °F /  16.2 °C 54.9 °F /  12.7 °C 29.77in /  1008hPa Calm     80% 0.01in /  0.3mm
21:49 61.1 °F /  16.2 °C 55.2 °F /  12.9 °C 29.76in /  1007.7hPa Calm     81% 0.01in /  0.3mm
21:54 61.1 °F /  16.2 °C 55.2 °F /  12.9 °C 29.76in /  1007.7hPa Calm     81% 0.01in /  0.3mm
21:59 61.1 °F /  16.2 °C 55.6 °F /  13.1 °C 29.75in /  1007.3hPa Calm     82% 0.01in /  0.3mm
22:04 61.1 °F /  16.2 °C 55.6 °F /  13.1 °C 29.75in /  1007.3hPa Calm     82% 0.01in /  0.3mm
22:09 61.1 °F /  16.2 °C 55.6 °F /  13.1 °C 29.75in /  1007.3hPa Calm     82% 0.01in /  0.3mm
22:14 61.0 °F /  16.1 °C 55.5 °F /  13.1 °C 29.75in /  1007.3hPa Calm     82% 0.01in /  0.3mm
22:19 61.1 °F /  16.2 °C 55.9 °F /  13.3 °C 29.75in /  1007.3hPa Calm     83% 0.01in /  0.3mm
22:24 61.1 °F /  16.2 °C 55.9 °F /  13.3 °C 29.75in /  1007.3hPa Calm     83% 0.01in /  0.3mm
22:29 61.1 °F /  16.2 °C 56.2 °F /  13.4 °C 29.75in /  1007.3hPa Calm     84% 0.01in /  0.3mm
22:34 61.1 °F /  16.2 °C 56.2 °F /  13.4 °C 29.75in /  1007.3hPa Calm     84% 0.01in /  0.3mm
22:39 61.1 °F /  16.2 °C 56.2 °F /  13.4 °C 29.74in /  1007hPa Calm     84% 0.01in /  0.3mm
22:44 61.1 °F /  16.2 °C 56.2 °F /  13.4 °C 29.74in /  1007hPa Calm     84% 0.01in /  0.3mm
22:54 61.2 °F /  16.2 °C 56.3 °F /  13.5 °C 29.74in /  1007hPa Calm     84% 0.01in /  0.3mm
22:59 61.3 °F /  16.3 °C 56.8 °F /  13.8 °C 29.74in /  1007hPa Calm     85% 0.01in /  0.3mm
23:04 61.2 °F /  16.2 °C 56.3 °F /  13.5 °C 29.74in /  1007hPa Calm     84% 0.01in /  0.3mm
23:09 61.4 °F /  16.3 °C 56.5 °F /  13.6 °C 29.74in /  1007hPa Calm     84% 0.01in /  0.3mm
23:14 61.6 °F /  16.4 °C 57.1 °F /  13.9 °C 29.74in /  1007hPa Calm     85% 0.01in /  0.3mm
23:19 61.8 °F /  16.6 °C 56.9 °F /  13.8 °C 29.73in /  1006.7hPa Calm     84% 0.01in /  0.3mm
23:24 62.0 °F /  16.7 °C 57.1 °F /  13.9 °C 29.74in /  1007hPa Calm     84% 0.01in /  0.3mm
23:29 62.2 °F /  16.8 °C 57.3 °F /  14.1 °C 29.73in /  1006.7hPa Calm     84% 0.01in /  0.3mm
23:34 62.3 °F /  16.8 °C 57.1 °F /  13.9 °C 29.74in /  1007hPa Calm   1.0mph /  1.6km/h 83% 0.01in /  0.3mm
23:39 62.6 °F /  17 °C 57.4 °F /  14.1 °C 29.74in /  1007hPa Calm   1.0mph /  1.6km/h 83% 0.01in /  0.3mm
23:44 62.8 °F /  17.1 °C 57.6 °F /  14.2 °C 29.74in /  1007hPa Calm     83% 0.01in /  0.3mm
23:49 63.0 °F /  17.2 °C 57.4 °F /  14.1 °C 29.74in /  1007hPa Calm     82% 0.01in /  0.3mm
23:54 63.2 °F /  17.3 °C 57.3 °F /  14.1 °C 29.74in /  1007hPa Calm     81% 0.01in /  0.3mm
23:59 63.4 °F /  17.4 °C 57.8 °F /  14.3 °C 29.74in /  1007hPa Calm   1.0mph /  1.6km/h 82% 0.01in /  0.3mm
Westford Weather
Compliments of Weather Underground

 
 
Current Radar Loop:

Copyright © WestfordWeather.net 2007-2014. All rights reserved.